Time;durP1;ratioP1;P1;durP2;ratioP2;P2;SDS_P1;SDS_P2;PMS_P1;PMS_P2;Temp;Humidity;BMP_temperature;BMP_pressure;BME280_temperature;BME280_humidity;BME280_pressure;Samples;Min_cycle;Max_cycle;Signal;HPM_P1;HPM_P2
2021/03/01 00:02:02;;;;;;;79.43;18.93;;;;;;;4.36;86.73;103306.97;5092403;28;20040;-68
2021/03/01 00:04:27;;;;;;;85.07;20.77;;;;;;;4.44;86.50;103299.59;5092323;28;20043;-68
2021/03/01 00:06:52;;;;;;;64.10;18.33;;;;;;;4.47;86.15;103299.44;5092142;28;20036;-68
2021/03/01 00:09:17;;;;;;;72.50;20.97;;;;;;;4.37;86.16;103292.81;5092074;28;20097;-68
2021/03/01 00:11:43;;;;;;;71.33;20.50;;;;;;;4.32;86.66;103295.63;5091125;28;20036;-68
2021/03/01 00:14:08;;;;;;;91.17;19.87;;;;;;;4.35;86.72;103299.94;5092233;28;20045;-68
2021/03/01 00:16:34;;;;;;;78.32;18.25;;;;;;;4.32;87.01;103285.06;5091926;28;20035;-69
2021/03/01 00:18:59;;;;;;;67.50;19.07;;;;;;;4.34;86.80;103291.16;5092077;28;20060;-68
2021/03/01 00:21:24;;;;;;;61.17;19.07;;;;;;;4.35;86.60;103284.06;5092175;28;20036;-68
2021/03/01 00:23:50;;;;;;;65.10;15.83;;;;;;;4.32;86.66;103287.69;5090853;28;20036;-69
2021/03/01 00:26:15;;;;;;;58.07;18.13;;;;;;;4.29;87.25;103273.75;5090827;28;20373;-68
2021/03/01 00:28:41;;;;;;;64.80;18.50;;;;;;;4.34;87.17;103274.44;5092003;28;20036;-68
2021/03/01 00:31:06;;;;;;;53.63;18.10;;;;;;;4.30;86.80;103280.75;5091839;28;20046;-68
2021/03/01 00:33:32;;;;;;;94.80;21.75;;;;;;;4.30;87.12;103283.41;5091894;28;20044;-68
2021/03/01 00:35:57;;;;;;;80.20;21.83;;;;;;;4.27;87.22;103279.09;5091740;28;20089;-68
2021/03/01 00:38:22;;;;;;;66.90;22.50;;;;;;;4.28;87.28;103270.22;5090611;28;20039;-69
2021/03/01 00:40:48;;;;;;;66.17;20.80;;;;;;;4.26;86.92;103277.38;5091466;28;20047;-68
2021/03/01 00:43:13;;;;;;;85.53;18.90;;;;;;;4.22;87.31;103258.09;5090701;28;20043;-68
2021/03/01 00:45:38;;;;;;;55.00;17.10;;;;;;;4.30;87.30;103265.75;5091592;28;20047;-68
2021/03/01 00:48:04;;;;;;;46.93;14.03;;;;;;;4.37;86.42;103269.84;5091473;28;20044;-68
2021/03/01 00:50:29;;;;;;;59.27;16.13;;;;;;;4.25;86.30;103266.84;5091661;28;20068;-69
2021/03/01 00:52:54;;;;;;;65.37;16.83;;;;;;;4.33;86.71;103264.75;5073665;28;20285;-68
2021/03/01 00:55:21;;;;;;;61.17;15.50;;;;;;;4.32;86.57;103261.25;5090552;28;20028;-68
2021/03/01 00:57:46;;;;;;;57.73;16.47;;;;;;;4.32;86.83;103265.69;5090372;28;20093;-68
2021/03/01 01:00:17;;;;;;;55.58;15.35;;;;;;;4.33;86.80;103267.41;5090438;28;20444;-68
2021/03/01 01:02:50;;;;;;;60.25;16.52;;;;;;;4.31;86.88;103266.59;5090552;28;20039;-68
2021/03/01 01:05:39;;;;;;;60.38;16.75;;;;;;;4.34;86.63;103264.69;5090986;28;20075;-68
2021/03/01 01:08:05;;;;;;;54.72;16.23;;;;;;;4.21;86.69;103258.16;5090300;28;20200;-68
2021/03/01 01:10:30;;;;;;;53.45;18.10;;;;;;;4.22;86.88;103258.09;5091169;28;20252;-68
2021/03/01 01:12:56;;;;;;;64.93;16.07;;;;;;;4.23;86.75;103258.97;5090686;28;20539;-68
2021/03/01 01:15:22;;;;;;;55.70;14.33;;;;;;;4.30;86.64;103264.88;5091211;28;20476;-69
2021/03/01 01:17:47;;;;;;;43.47;13.45;;;;;;;4.28;86.38;103250.84;5090102;28;20043;-68
2021/03/01 01:20:13;;;;;;;51.33;15.03;;;;;;;4.27;86.18;103257.94;5091206;28;20040;-69
2021/03/01 01:22:40;;;;;;;49.47;14.90;;;;;;;4.19;86.28;103254.72;5090437;28;20116;-68
2021/03/01 01:25:08;;;;;;;46.47;12.88;;;;;;;4.12;86.52;103246.19;5091251;28;20418;-68
2021/03/01 01:27:34;;;;;;;43.53;13.60;;;;;;;4.06;86.64;103245.56;5090023;28;20031;-68
2021/03/01 01:29:59;;;;;;;36.27;10.93;;;;;;;3.99;86.98;103252.84;5090167;28;20584;-68
2021/03/01 01:32:24;;;;;;;41.72;12.43;;;;;;;4.04;87.16;103248.25;5091074;28;20130;-68
2021/03/01 01:34:50;;;;;;;38.50;12.57;;;;;;;4.05;87.30;103242.06;5091074;28;20056;-68
2021/03/01 01:37:15;;;;;;;39.77;13.73;;;;;;;4.07;86.95;103258.69;5090829;28;20093;-68
2021/03/01 01:39:40;;;;;;;37.00;10.30;;;;;;;4.10;86.70;103249.81;5090133;28;20519;-68
2021/03/01 01:42:06;;;;;;;42.20;12.67;;;;;;;4.16;86.48;103245.13;5091028;28;20038;-68
2021/03/01 01:44:31;;;;;;;41.57;13.23;;;;;;;4.12;86.56;103243.53;5090971;28;20024;-68
2021/03/01 01:46:56;;;;;;;50.73;14.97;;;;;;;4.08;86.74;103243.72;5090771;28;20488;-68
2021/03/01 01:49:22;;;;;;;36.13;11.97;;;;;;;4.10;86.60;103245.38;5090128;28;20481;-68
2021/03/01 01:51:47;;;;;;;35.80;12.37;;;;;;;4.06;86.20;103249.03;5090996;28;20452;-68
2021/03/01 01:54:13;;;;;;;36.72;11.18;;;;;;;3.97;86.86;103254.69;5093822;28;20028;-68
2021/03/01 01:56:40;;;;;;;31.00;10.83;;;;;;;3.99;86.65;103258.13;5094641;28;20078;-68
2021/03/01 01:59:06;;;;;;;44.25;12.52;;;;;;;3.92;86.94;103254.84;5094876;28;20047;-68
2021/03/01 02:01:32;;;;;;;;;;;;;;;4.04;86.64;103263.25;5095254;28;20035;-68
2021/03/01 02:04:01;;;;;;;;;;;;;;;4.00;86.20;103262.50;5094321;28;20337;-68
2021/03/01 02:06:39;;;;;;;41.53;10.95;;;;;;;3.99;86.46;103264.28;5094326;28;19923;-68
2021/03/01 02:09:24;;;;;;;32.00;9.70;;;;;;;4.04;86.40;103261.47;5094575;28;20043;-68
2021/03/01 02:12:27;;;;;;;38.05;10.23;;;;;;;4.05;86.51;103257.03;5094443;28;20028;-68
2021/03/01 02:15:05;;;;;;;41.35;11.45;;;;;;;4.04;86.33;103257.97;5094548;28;20519;-68
2021/03/01 02:17:30;;;;;;;33.53;10.43;;;;;;;4.00;86.28;103254.56;5094404;28;20144;-68
2021/03/01 02:19:56;;;;;;;37.05;12.02;;;;;;;4.00;86.73;103252.81;5094526;28;20093;-68
2021/03/01 02:22:21;;;;;;;36.43;12.60;;;;;;;3.98;86.70;103251.09;5093485;28;20055;-68
2021/03/01 02:24:56;;;;;;;28.23;11.67;;;;;;;4.08;86.68;103254.28;5093484;28;20044;-68
2021/03/01 02:27:27;;;;;;;40.45;11.50;;;;;;;3.95;86.55;103256.53;5094079;28;20039;-68
2021/03/01 02:29:57;;;;;;;35.00;12.88;;;;;;;3.78;86.98;103255.38;5093380;28;20032;-68
2021/03/01 02:32:27;;;;;;;42.60;12.63;;;;;;;3.75;87.29;103258.13;5093158;28;20081;-68
2021/03/01 02:34:53;;;;;;;34.33;11.60;;;;;;;3.69;87.16;103252.22;5094079;28;20097;-68
2021/03/01 02:37:23;;;;;;;34.92;11.10;;;;;;;3.72;87.42;103252.09;5075960;28;20412;-68
2021/03/01 02:39:50;;;;;;;45.58;13.50;;;;;;;3.74;87.25;103248.47;5093133;28;20032;-68
2021/03/01 02:42:25;;;;;;;39.70;13.07;;;;;;;3.72;87.17;103252.09;5093970;28;20035;-68
2021/03/01 02:44:53;;;;;;;35.80;11.60;;;;;;;3.78;87.25;103251.88;5094024;28;20475;-68
2021/03/01 02:47:20;;;;;;;37.10;11.68;;;;;;;3.70;86.98;103248.63;5093628;28;20071;-68
2021/03/01 02:49:47;;;;;;;38.35;11.55;;;;;;;3.52;87.07;103247.56;5093814;28;20032;-68
2021/03/01 02:52:14;;;;;;;36.10;13.63;;;;;;;3.54;87.08;103251.84;5092799;28;20453;-68
2021/03/01 02:54:41;;;;;;;32.30;11.32;;;;;;;3.54;87.06;103253.66;5093917;28;20089;-68
2021/03/01 02:57:08;;;;;;;34.70;12.50;;;;;;;3.23;87.35;103249.44;5093491;28;20456;-68
2021/03/01 02:59:35;;;;;;;39.80;13.15;;;;;;;3.25;87.86;103247.59;5092847;28;20475;-68
2021/03/01 03:02:01;;;;;;;43.25;13.10;;;;;;;3.24;88.00;103253.81;5092645;28;20024;-68
2021/03/01 03:04:27;;;;;;;43.65;14.65;;;;;;;3.16;87.63;103254.09;5093254;28;20097;-68
2021/03/01 03:06:55;;;;;;;36.85;13.82;;;;;;;3.22;88.08;103250.34;5092302;28;20044;-68
2021/03/01 03:09:21;;;;;;;41.28;13.70;;;;;;;3.21;88.23;103243.38;5093476;28;20031;-68
2021/03/01 03:11:47;;;;;;;38.95;14.23;;;;;;;3.32;88.13;103238.53;5093250;28;20034;-68
2021/03/01 03:14:16;;;;;;;31.42;12.40;;;;;;;3.34;88.07;103242.00;5092545;28;20115;-68
2021/03/01 03:16:41;;;;;;;46.00;13.85;;;;;;;3.33;87.82;103253.47;5092924;28;20066;-68
2021/03/01 03:19:08;;;;;;;31.20;11.83;;;;;;;3.40;87.61;103251.50;5092334;28;20574;-68
2021/03/01 03:21:34;;;;;;;;;;;;;;;3.14;87.50;103249.78;5092763;28;20089;-68
2021/03/01 03:23:59;;;;;;;;;;;;;;;3.06;87.83;103249.16;5093691;28;19916;-68
2021/03/01 03:26:24;;;;;;;33.28;11.98;;;;;;;3.20;87.27;103254.81;5092961;28;19916;-68
2021/03/01 03:28:50;;;;;;;28.67;12.60;;;;;;;3.06;87.36;103254.44;5092303;28;20187;-68
2021/03/01 03:31:15;;;;;;;31.10;12.33;;;;;;;2.93;87.88;103256.63;5092871;28;20035;-68
2021/03/01 03:33:42;;;;;;;29.85;10.20;;;;;;;2.91;88.09;103254.03;5093081;28;20044;-68
2021/03/01 03:36:09;;;;;;;25.98;11.43;;;;;;;3.00;87.99;103252.00;5092807;28;20028;-68
2021/03/01 03:38:42;;;;;;;27.02;11.57;;;;;;;3.00;87.91;103254.63;5092778;28;20039;-68
2021/03/01 03:41:08;;;;;;;33.47;12.05;;;;;;;2.98;87.61;103251.22;5091972;28;20089;-68
2021/03/01 03:43:34;;;;;;;32.50;11.32;;;;;;;2.95;87.64;103260.94;5092819;28;20032;-68
2021/03/01 03:46:01;;;;;;;30.48;12.10;;;;;;;2.65;87.56;103261.97;5092578;28;20715;-68
2021/03/01 03:48:28;;;;;;;30.30;12.30;;;;;;;2.64;88.00;103255.81;5092549;28;20072;-68
2021/03/01 03:50:55;;;;;;;35.28;12.05;;;;;;;2.64;88.42;103258.44;5092597;28;20028;-68
2021/03/01 03:53:25;;;;;;;31.85;11.75;;;;;;;2.68;88.44;103260.06;5092636;28;20044;-68
2021/03/01 03:55:53;;;;;;;24.67;9.98;;;;;;;2.71;88.21;103264.38;5092551;28;20032;-68
2021/03/01 03:58:23;;;;;;;28.70;12.02;;;;;;;2.67;88.18;103260.13;5091307;28;20043;-68
2021/03/01 04:00:52;;;;;;;27.75;11.55;;;;;;;2.64;87.96;103270.78;5091586;28;20031;-68
2021/03/01 04:03:22;;;;;;;25.98;12.43;;;;;;;2.65;88.25;103262.81;5092396;28;20078;-68
2021/03/01 04:05:52;;;;;;;24.95;10.73;;;;;;;2.60;88.07;103277.94;5091396;28;20165;-68
2021/03/01 04:08:19;;;;;;;24.20;10.27;;;;;;;2.55;87.55;103269.28;5092267;28;20469;-68
2021/03/01 04:10:50;;;;;;;22.55;10.07;;;;;;;2.58;87.65;103276.25;5092064;28;20468;-68
2021/03/01 04:13:16;;;;;;;26.38;10.43;;;;;;;2.49;87.23;103274.78;5074470;28;20357;-68
2021/03/01 04:15:47;;;;;;;20.88;9.70;;;;;;;2.34;87.00;103273.44;5091394;28;20457;-68
2021/03/01 04:18:17;;;;;;;25.17;9.07;;;;;;;2.37;87.22;103273.38;5092045;28;20086;-68
2021/03/01 04:20:44;;;;;;;24.25;11.05;;;;;;;2.38;87.15;103275.09;5091171;28;20070;-68
2021/03/01 04:23:10;;;;;;;26.10;12.80;;;;;;;2.46;86.61;103280.16;5091270;28;20431;-68
2021/03/01 04:25:36;;;;;;;24.60;10.80;;;;;;;2.37;86.78;103286.56;5091699;28;20478;-68
2021/03/01 04:28:02;;;;;;;;;;;;;;;2.44;86.89;103279.34;5092383;28;20032;-68
2021/03/01 04:30:27;;;;;;;;;;;;;;;2.49;86.86;103283.53;5092398;28;20260;-68
2021/03/01 04:32:54;;;;;;;29.97;12.87;;;;;;;2.52;86.82;103285.22;5091023;28;20302;-68
2021/03/01 04:35:20;;;;;;;31.13;12.55;;;;;;;2.40;87.10;103277.69;5090919;28;20023;-68
2021/03/01 04:37:48;;;;;;;26.17;11.32;;;;;;;2.33;87.08;103277.00;5091660;28;20050;-68
2021/03/01 04:40:15;;;;;;;24.63;11.60;;;;;;;2.39;87.11;103281.22;5090769;28;20043;-68
2021/03/01 04:42:43;;;;;;;27.05;11.85;;;;;;;2.39;86.98;103275.94;5091803;28;20047;-68
2021/03/01 04:45:10;;;;;;;27.05;12.13;;;;;;;2.32;86.81;103281.44;5091692;28;20032;-68
2021/03/01 04:47:36;;;;;;;31.30;11.52;;;;;;;2.29;87.34;103281.53;5091360;28;20036;-68
2021/03/01 04:50:03;;;;;;;49.75;12.35;;;;;;;2.14;87.11;103286.41;5091676;28;20439;-68
2021/03/01 04:52:31;;;;;;;27.95;11.32;;;;;;;2.09;87.04;103286.53;5091460;28;20031;-68
2021/03/01 04:54:59;;;;;;;27.00;12.27;;;;;;;1.98;87.00;103278.94;5091582;28;20039;-68
2021/03/01 04:57:26;;;;;;;27.23;11.27;;;;;;;2.02;87.24;103279.72;5090339;28;20040;-68
2021/03/01 04:59:52;;;;;;;27.75;11.80;;;;;;;2.04;87.34;103277.91;5091556;28;20085;-68
2021/03/01 05:02:18;;;;;;;25.63;11.18;;;;;;;2.10;87.33;103291.72;5073789;28;20081;-68
2021/03/01 05:04:43;;;;;;;26.67;11.10;;;;;;;2.03;86.97;103284.91;5073713;28;20047;-68
2021/03/01 05:07:09;;;;;;;26.90;11.40;;;;;;;2.10;87.26;103289.09;5091006;28;20036;-68
2021/03/01 05:09:38;;;;;;;29.60;12.05;;;;;;;2.10;87.03;103283.81;5091310;28;20032;-68
2021/03/01 05:12:03;;;;;;;24.85;12.05;;;;;;;2.14;87.05;103278.50;5091399;28;20109;-68
2021/03/01 05:14:29;;;;;;;28.48;11.25;;;;;;;2.23;86.85;103288.75;5091368;28;20446;-68
2021/03/01 05:16:54;;;;;;;34.13;13.10;;;;;;;2.09;86.89;103284.75;5090998;28;20051;-68
2021/03/01 05:19:19;;;;;;;25.97;11.63;;;;;;;2.16;87.38;103285.44;5090483;28;20036;-68
2021/03/01 05:21:45;;;;;;;33.57;13.93;;;;;;;2.23;87.29;103294.03;5091108;28;20036;-68
2021/03/01 05:24:10;;;;;;;35.37;14.43;;;;;;;2.23;86.93;103292.25;5090394;28;20040;-68
2021/03/01 05:26:36;;;;;;;34.90;13.00;;;;;;;2.24;86.97;103295.75;5091155;28;20043;-68
2021/03/01 05:29:03;;;;;;;32.65;12.93;;;;;;;2.24;86.91;103287.84;5095514;28;20104;-68
2021/03/01 05:31:28;;;;;;;28.17;12.90;;;;;;;2.18;86.65;103301.19;5095257;28;20060;-68
2021/03/01 05:33:54;;;;;;;30.90;12.17;;;;;;;2.10;87.38;103296.16;5094463;28;20127;-68
2021/03/01 05:36:19;;;;;;;31.50;13.90;;;;;;;2.01;86.79;103297.28;5077003;28;20170;-68
2021/03/01 05:38:44;;;;;;;31.80;12.37;;;;;;;1.98;87.16;103301.78;5095222;28;20134;-68
2021/03/01 05:41:10;;;;;;;28.80;11.57;;;;;;;1.99;87.09;103301.75;5094344;28;20044;-68
2021/03/01 05:43:36;;;;;;;30.20;13.75;;;;;;;1.95;87.08;103302.75;5095152;28;20036;-68
2021/03/01 05:46:02;;;;;;;;;;;;;;;1.94;87.30;103308.91;5094334;28;20044;-68
2021/03/01 05:48:29;;;;;;;31.42;12.48;;;;;;;2.01;87.15;103302.53;5094030;28;19912;-68
2021/03/01 05:50:56;;;;;;;;;;;;;;;1.90;87.03;103309.91;5095228;28;20036;-68
2021/03/01 05:53:25;;;;;;;26.92;12.05;;;;;;;1.86;87.24;103303.00;5095016;28;19919;-68
2021/03/01 05:55:51;;;;;;;29.02;12.35;;;;;;;1.83;87.45;103303.94;5094687;28;20131;-68
2021/03/01 05:58:17;;;;;;;32.47;12.43;;;;;;;1.77;87.39;103298.84;5093773;28;20043;-68
2021/03/01 06:00:43;;;;;;;26.13;12.00;;;;;;;1.77;87.49;103309.38;5094691;28;20044;-68
2021/03/01 06:03:09;;;;;;;;;;;;;;;1.81;87.29;103305.75;5095330;28;20445;-68
2021/03/01 06:05:34;;;;;;;;;;;;;;;1.61;87.40;103311.56;5077058;28;19920;-68
2021/03/01 06:08:00;;;;;;;23.73;10.80;;;;;;;1.58;87.50;103313.44;5093781;28;20349;-68
2021/03/01 06:10:25;;;;;;;34.15;11.55;;;;;;;1.63;87.52;103312.38;5093603;28;20403;-68
2021/03/01 06:12:50;;;;;;;23.97;11.07;;;;;;;1.63;87.57;103312.38;5094634;28;20040;-68
2021/03/01 06:15:16;;;;;;;32.83;12.50;;;;;;;1.64;87.59;103315.91;5094653;28;20032;-68
2021/03/01 06:18:08;;;;;;;30.42;13.95;;;;;;;1.69;87.78;103317.50;5093243;28;20058;-68
2021/03/01 06:20:35;;;;;;;25.10;10.60;;;;;;;1.67;87.98;103314.03;5094544;28;20452;-68
2021/03/01 06:23:01;;;;;;;28.25;12.02;;;;;;;1.69;87.78;103314.88;5094431;28;20036;-68
2021/03/01 06:25:27;;;;;;;31.90;12.32;;;;;;;1.73;87.38;103309.50;5076431;28;20372;-68
2021/03/01 06:27:55;;;;;;;28.45;13.15;;;;;;;1.48;87.69;103310.19;5076220;28;20035;-68
2021/03/01 06:30:41;;;;;;;44.72;10.75;;;;;;;1.50;87.78;103311.00;5094181;28;20067;-68
2021/03/01 06:33:17;;;;;;;23.58;10.88;;;;;;;1.72;88.99;103306.00;5092910;28;20098;-68
2021/03/01 06:35:50;;;;;;;28.73;11.57;;;;;;;1.75;88.64;103315.59;5093126;28;20032;-68
2021/03/01 06:38:36;;;;;;;25.85;11.02;;;;;;;1.91;88.72;103309.00;5093613;28;20036;-68
2021/03/01 06:41:10;;;;;;;23.83;10.02;;;;;;;1.94;87.74;103310.69;5094068;28;20035;-68
2021/03/01 06:43:38;;;;;;;25.02;9.55;;;;;;;1.77;86.61;103317.28;5093033;28;20436;-67
2021/03/01 06:46:14;;;;;;;28.75;10.57;;;;;;;1.65;86.65;103312.34;5093710;28;20093;-68
2021/03/01 06:48:41;;;;;;;23.58;10.75;;;;;;;1.48;86.72;103320.72;5093925;28;20219;-68
2021/03/01 06:51:08;;;;;;;22.17;9.02;;;;;;;1.55;86.94;103324.06;5092823;28;20036;-68
2021/03/01 06:53:35;;;;;;;26.98;10.38;;;;;;;1.55;86.89;103324.91;5092868;28;20542;-68
2021/03/01 06:56:03;;;;;;;24.45;10.50;;;;;;;1.68;87.26;103330.69;5093633;28;20036;-68
2021/03/01 06:58:33;;;;;;;23.95;11.05;;;;;;;1.60;86.80;103330.06;5093634;28;20046;-68
2021/03/01 07:01:02;;;;;;;25.20;10.40;;;;;;;1.60;86.85;103328.28;5092818;28;20060;-68
2021/03/01 07:03:27;;;;;;;28.55;10.38;;;;;;;1.56;86.95;103316.09;5093708;28;20055;-68
2021/03/01 07:05:54;;;;;;;25.17;10.10;;;;;;;1.54;86.64;103328.44;5092540;28;20458;-68
2021/03/01 07:08:45;;;;;;;27.88;11.40;;;;;;;1.40;87.05;103320.03;5093376;28;20109;-68
2021/03/01 07:11:33;;;;;;;23.65;9.95;;;;;;;1.38;87.47;103313.94;5093390;28;20365;-68
2021/03/01 07:14:05;;;;;;;24.58;10.02;;;;;;;1.44;87.41;103313.81;5093512;28;20036;-68
2021/03/01 07:16:46;;;;;;;22.75;9.98;;;;;;;1.48;87.39;103312.81;5093055;28;20074;-68
2021/03/01 07:19:16;;;;;;;17.08;7.28;;;;;;;1.48;87.14;103318.09;5075632;28;20040;-68
2021/03/01 07:21:44;;;;;;;21.67;8.63;;;;;;;1.52;86.64;103318.84;5093299;28;20042;-68
2021/03/01 07:24:10;;;;;;;19.80;9.05;;;;;;;1.49;86.72;103309.28;5092207;28;20096;-68
2021/03/01 07:26:37;;;;;;;23.45;8.88;;;;;;;1.38;86.70;103308.69;5092878;28;20039;-68
2021/03/01 07:29:13;;;;;;;25.08;9.30;;;;;;;1.46;86.72;103309.34;5093088;28;20036;-68
2021/03/01 07:31:50;;;;;;;21.02;8.98;;;;;;;1.45;86.52;103310.25;5092132;28;20366;-68
2021/03/01 07:34:17;;;;;;;18.80;8.45;;;;;;;1.59;86.52;103323.94;5093138;28;20062;-68
2021/03/01 07:36:43;;;;;;;15.50;7.70;;;;;;;1.46;86.37;103315.47;5092702;28;20581;-68
2021/03/01 07:39:10;;;;;;;16.90;7.20;;;;;;;1.53;85.68;103316.19;5075025;28;20024;-67
2021/03/01 07:41:36;;;;;;;91.07;10.05;;;;;;;1.39;85.94;103324.44;5075012;28;20369;-68
2021/03/01 07:44:03;;;;;;;19.75;8.35;;;;;;;1.39;86.68;103319.19;5091817;28;20161;-68
2021/03/01 07:46:31;;;;;;;20.58;8.18;;;;;;;1.43;86.51;103323.47;5091612;28;20036;-68
2021/03/01 07:48:58;;;;;;;17.35;7.60;;;;;;;1.44;86.51;103322.56;5074919;28;20399;-68
2021/03/01 07:51:46;;;;;;;20.90;7.38;;;;;;;1.54;86.59;103324.94;5090771;28;20040;-68
2021/03/01 07:54:17;;;;;;;15.25;7.00;;;;;;;1.41;86.09;103330.53;5092701;28;20043;-68
2021/03/01 07:56:47;;;;;;;40.97;9.13;;;;;;;1.48;85.89;103329.47;5091350;28;20105;-68
2021/03/01 07:59:14;;;;;;;17.90;6.88;;;;;;;1.47;86.24;103333.03;5074772;28;20377;-68
2021/03/01 08:01:39;;;;;;;20.25;7.80;;;;;;;1.47;86.02;103340.03;5091588;28;20047;-68
2021/03/01 08:04:05;;;;;;;19.17;7.38;;;;;;;1.70;87.73;103344.69;5092283;28;20040;-68
2021/03/01 08:06:55;;;;;;;35.92;11.02;;;;;;;1.66;86.71;103341.28;5091188;28;20085;-68
2021/03/01 08:09:40;;;;;;;39.03;9.98;;;;;;;1.51;85.86;103348.72;5091417;28;20039;-68
2021/03/01 08:12:05;;;;;;;26.92;8.63;;;;;;;1.61;85.92;103351.06;5092302;28;20036;-68
2021/03/01 08:14:49;;;;;;;19.83;8.80;;;;;;;1.77;86.17;103346.25;5092205;28;20105;-68
2021/03/01 08:17:26;;;;;;;32.65;8.30;;;;;;;1.81;85.71;103342.63;5090720;28;20050;-68
2021/03/01 08:19:53;;;;;;;19.10;9.38;;;;;;;1.71;85.74;103340.28;5090984;28;20143;-68
2021/03/01 08:22:18;;;;;;;;;;;;;;;1.87;86.18;103331.94;5092659;28;20035;-68
2021/03/01 08:24:52;;;;;;;23.05;8.50;;;;;;;1.76;85.65;103343.69;5091085;28;19980;-68
2021/03/01 08:27:27;;;;;;;21.58;8.05;;;;;;;1.72;85.91;103342.03;5090201;28;20046;-68
2021/03/01 08:30:24;;;;;;;18.77;7.78;;;;;;;1.81;84.84;103339.16;5091846;28;20403;-68
2021/03/01 08:33:08;;;;;;;15.73;7.45;;;;;;;1.72;85.47;103331.50;5091836;28;20467;-68
2021/03/01 08:35:35;;;;;;;14.05;6.40;;;;;;;1.63;85.95;103344.00;5091605;28;20047;-68
2021/03/01 08:38:00;;;;;;;25.80;7.38;;;;;;;1.56;85.27;103336.31;5090624;28;20462;-68
2021/03/01 08:40:25;;;;;;;54.53;7.93;;;;;;;1.31;85.74;103326.44;5091863;28;20038;-68
2021/03/01 08:42:56;;;;;;;16.52;6.20;;;;;;;1.56;86.74;103346.84;5090912;28;20346;-68
2021/03/01 08:45:27;;;;;;;15.73;6.20;;;;;;;1.69;86.11;103348.25;5090745;28;20071;-68
2021/03/01 08:47:55;;;;;;;18.58;5.97;;;;;;;1.80;84.97;103351.47;5091447;28;20039;-68
2021/03/01 08:50:34;;;;;;;53.88;7.93;;;;;;;1.61;85.10;103353.69;5090825;28;20028;-68
2021/03/01 08:52:59;;;;;;;20.40;6.30;;;;;;;1.72;85.60;103344.66;5073852;28;20100;-68
2021/03/01 08:55:26;;;;;;;23.27;7.83;;;;;;;1.76;85.87;103341.06;5090452;28;20043;-68
2021/03/01 08:58:15;;;;;;;18.25;6.85;;;;;;;1.92;85.51;103347.63;5091359;28;20040;-68
2021/03/01 09:00:56;;;;;;;24.02;8.73;;;;;;;1.80;84.93;103363.75;5091369;28;20082;-68
2021/03/01 09:03:25;;;;;;;18.75;7.50;;;;;;;1.86;85.75;103361.81;5091144;28;20073;-67
2021/03/01 09:06:11;;;;;;;20.15;8.48;;;;;;;2.03;86.04;103369.25;5090306;28;20050;-68
2021/03/01 09:08:40;;;;;;;18.83;7.93;;;;;;;2.01;85.49;103365.78;5089668;28;20086;-68
2021/03/01 09:11:21;;;;;;;19.58;7.28;;;;;;;1.92;85.46;103360.81;5091026;28;20050;-68
2021/03/01 09:13:49;;;;;;;18.13;7.25;;;;;;;1.97;85.72;103372.06;5090575;28;20108;-68
2021/03/01 09:16:16;;;;;;;69.20;10.30;;;;;;;1.59;85.25;103371.34;5091054;28;20074;-68
2021/03/01 09:18:44;;;;;;;18.00;7.88;;;;;;;1.63;86.71;103377.38;5091359;28;20078;-68
2021/03/01 09:21:14;;;;;;;23.63;8.55;;;;;;;1.78;86.59;103369.06;5090109;28;20143;-68
2021/03/01 09:23:50;;;;;;;15.82;6.53;;;;;;;1.90;86.01;103370.50;5090429;28;20040;-68
2021/03/01 09:26:20;;;;;;;;;;;;;;;1.83;84.95;103372.44;5090076;28;20453;-68
2021/03/01 09:28:46;;;;;;;12.75;5.30;;;;;;;1.93;85.49;103373.06;5090300;28;19926;-68
2021/03/01 09:31:13;;;;;;;16.45;5.35;;;;;;;1.82;84.90;103368.06;5090210;28;20442;-68
2021/03/01 09:33:40;;;;;;;18.50;5.55;;;;;;;1.90;84.57;103370.50;5091102;28;20438;-68
2021/03/01 09:36:07;;;;;;;11.65;5.50;;;;;;;1.99;84.60;103367.63;5089806;28;20096;-68
2021/03/01 09:38:33;;;;;;;12.73;6.18;;;;;;;2.24;84.79;103359.00;5091014;28;20028;-68
2021/03/01 09:41:02;;;;;;;12.05;5.93;;;;;;;2.24;84.56;103370.41;5091036;28;20268;-68
2021/03/01 09:43:27;;;;;;;20.92;6.65;;;;;;;2.12;84.47;103365.50;5090163;28;20036;-68
2021/03/01 09:45:54;;;;;;;13.23;6.80;;;;;;;2.13;84.31;103369.88;5090853;28;20046;-68
2021/03/01 09:48:19;;;;;;;10.68;5.38;;;;;;;2.28;84.49;103364.16;5090856;28;20063;-67
2021/03/01 09:50:46;;;;;;;21.47;5.87;;;;;;;2.11;84.12;103366.41;5091053;28;20063;-68
2021/03/01 09:53:14;;;;;;;20.83;6.18;;;;;;;2.20;83.65;103365.28;5089656;28;20296;-68
2021/03/01 09:55:40;;;;;;;13.25;5.63;;;;;;;2.18;84.45;103374.97;5089938;28;20097;-68
2021/03/01 09:58:28;;;;;;;15.10;6.50;;;;;;;1.96;85.26;103375.59;5090828;28;20411;-68
2021/03/01 10:01:05;;;;;;;14.05;6.93;;;;;;;2.11;85.28;103375.19;5078998;28;20461;-67
2021/03/01 10:03:38;;;;;;;19.48;7.80;;;;;;;2.29;85.15;103376.44;5091044;28;20469;-67
2021/03/01 10:06:04;;;;;;;34.55;7.65;;;;;;;2.16;84.48;103384.75;5088789;28;20036;-67
2021/03/01 10:08:30;;;;;;;13.18;6.60;;;;;;;2.05;85.42;103387.66;5089566;28;20051;-67
2021/03/01 10:10:56;;;;;;;16.67;7.20;;;;;;;2.20;85.43;103396.91;5090658;28;20097;-66
2021/03/01 10:13:27;;;;;;;22.15;6.18;;;;;;;2.28;84.82;103389.66;5089627;28;20032;-66
2021/03/01 10:15:54;;;;;;;59.67;8.68;;;;;;;2.10;84.78;103386.63;5094349;28;20027;-66
2021/03/01 10:18:21;;;;;;;34.75;8.30;;;;;;;2.16;84.98;103393.50;5094323;28;20130;-67
2021/03/01 10:20:57;;;;;;;17.80;7.95;;;;;;;2.25;85.57;103384.47;5094460;28;20516;-67
2021/03/01 10:23:31;;;;;;;13.88;6.97;;;;;;;2.47;85.14;103384.69;5094429;28;20450;-67
2021/03/01 10:26:07;;;;;;;32.58;8.60;;;;;;;2.26;85.42;103378.28;5093912;28;20442;-67
2021/03/01 10:28:35;;;;;;;31.45;7.20;;;;;;;2.19;84.72;103384.63;5094233;28;20076;-68
2021/03/01 10:31:06;;;;;;;25.08;7.95;;;;;;;2.18;85.06;103393.44;5093043;28;20040;-67
2021/03/01 10:34:03;;;;;;;20.27;7.88;;;;;;;2.14;84.91;103382.13;5075956;28;20100;-67
2021/03/01 10:36:38;;;;;;;19.98;7.15;;;;;;;2.27;85.49;103377.34;5093728;28;20043;-67
2021/03/01 10:39:40;;;;;;;18.17;7.63;;;;;;;2.60;85.71;103393.09;5094070;28;20110;-67
2021/03/01 10:42:13;;;;;;;31.00;7.85;;;;;;;2.27;84.29;103387.91;5050845;28;20056;-66
2021/03/01 10:45:02;;;;;;;14.20;6.65;;;;;;;2.27;84.90;103393.19;5092723;28;20059;-67
2021/03/01 10:47:33;;;;;;;25.65;7.30;;;;;;;1.97;84.99;103389.66;5093621;28;20050;-67
2021/03/01 10:50:04;;;;;;;17.58;6.10;;;;;;;2.35;85.66;103396.47;5092909;28;20075;-67
2021/03/01 10:52:30;;;;;;;15.32;6.90;;;;;;;2.19;84.84;103398.69;5093718;28;20442;-67
2021/03/01 10:54:57;;;;;;;34.58;7.32;;;;;;;1.97;85.59;103395.78;5093787;28;20050;-67
2021/03/01 10:57:23;;;;;;;38.28;7.80;;;;;;;1.73;86.34;103402.56;5093393;28;20452;-67
2021/03/01 10:59:53;;;;;;;36.55;7.93;;;;;;;1.80;86.76;103400.63;5092787;28;20036;-67
2021/03/01 11:02:18;;;;;;;19.88;7.82;;;;;;;2.21;87.13;103403.91;5092794;28;20442;-67
2021/03/01 11:04:45;;;;;;;14.77;5.97;;;;;;;2.25;85.74;103405.56;5093710;28;20040;-68
2021/03/01 11:07:10;;;;;;;19.35;7.47;;;;;;;2.43;85.12;103398.88;5092367;28;20427;-67
2021/03/01 11:09:35;;;;;;;15.13;6.60;;;;;;;2.52;84.30;103404.75;5092545;28;20032;-67
2021/03/01 11:12:03;;;;;;;12.70;6.83;;;;;;;2.70;84.43;103400.72;5093559;28;20036;-67
2021/03/01 11:14:29;;;;;;;10.90;5.18;;;;;;;2.82;83.24;103404.75;5092500;28;20127;-67
2021/03/01 11:16:54;;;;;;;14.83;6.37;;;;;;;2.77;82.78;103400.53;5093114;28;20127;-68
2021/03/01 11:19:20;;;;;;;12.33;6.30;;;;;;;2.91;82.63;103391.25;5093377;28;20109;-67
2021/03/01 11:21:47;;;;;;;10.70;5.40;;;;;;;2.75;82.53;103390.88;5092413;28;20039;-67
2021/03/01 11:24:12;;;;;;;13.77;6.78;;;;;;;2.85;83.15;103395.88;5093101;28;20091;-68
2021/03/01 11:26:38;;;;;;;14.23;7.97;;;;;;;2.74;82.61;103397.06;5092774;28;20040;-68
2021/03/01 11:29:03;;;;;;;9.67;5.20;;;;;;;2.82;83.14;103391.56;5092323;28;20274;-68
2021/03/01 11:31:31;;;;;;;13.20;5.55;;;;;;;2.78;82.76;103394.31;5093122;28;20032;-67
2021/03/01 11:33:57;;;;;;;20.48;7.20;;;;;;;2.74;82.10;103388.31;5093119;28;20067;-67